RYR28C EGCC-EGPH
Flight info
| Callsign | RYR28C |
|---|---|
| Flight time | 0h 36m |
| Altitude | 24000 |
| Route | POL N601 INPIP |
| Aircraft | B738/M-SDE2E3FGHIRWXY/LB1 |
Departure
| Time | 2026-04-26 19:47 |
|---|---|
| Airport | Manchester Airport (EGCC) |
Arrival
| Time | 2026-04-26 20:23 |
|---|---|
| Airport | Edinburgh Airport (EGPH) |
| Time | Latitude | Longitude | Altitude | Speed | Heading |
|---|---|---|---|---|---|
| 2026-04-26 19:26 | 53.36009 | -2.26923 | 232 ft | 0 kts | 316° |
| 2026-04-26 19:36 | 53.36001 | -2.26910 | 233 ft | 3 kts | 311° |
| 2026-04-26 19:36 | 53.35989 | -2.26884 | 232 ft | 3 kts | 301° |
| 2026-04-26 19:37 | 53.35979 | -2.26856 | 237 ft | 3 kts | 312° |
| 2026-04-26 19:37 | 53.35977 | -2.26841 | 236 ft | 3 kts | 25° |
| 2026-04-26 19:37 | 53.35986 | -2.26826 | 233 ft | 1 kts | 46° |
| 2026-04-26 19:37 | 53.35986 | -2.26827 | 233 ft | 0 kts | 46° |
| 2026-04-26 19:41 | 53.35988 | -2.26823 | 234 ft | 2 kts | 46° |
| 2026-04-26 19:41 | 53.35997 | -2.26799 | 233 ft | 3 kts | 67° |
| 2026-04-26 19:41 | 53.35996 | -2.26769 | 232 ft | 3 kts | 108° |
| 2026-04-26 19:41 | 53.35989 | -2.26752 | 232 ft | 3 kts | 127° |
| 2026-04-26 19:42 | 53.35975 | -2.26715 | 233 ft | 4 kts | 113° |
| 2026-04-26 19:42 | 53.35979 | -2.26657 | 233 ft | 7 kts | 61° |
| 2026-04-26 19:42 | 53.36015 | -2.26579 | 233 ft | 10 kts | 52° |
| 2026-04-26 19:42 | 53.36063 | -2.26481 | 235 ft | 10 kts | 51° |
| 2026-04-26 19:43 | 53.36108 | -2.26387 | 233 ft | 12 kts | 51° |
| 2026-04-26 19:43 | 53.36158 | -2.26283 | 234 ft | 10 kts | 49° |
| 2026-04-26 19:43 | 53.36210 | -2.26218 | 232 ft | 11 kts | 47° |
| 2026-04-26 19:43 | 53.36261 | -2.26113 | 232 ft | 11 kts | 56° |
| 2026-04-26 19:44 | 53.36270 | -2.26025 | 232 ft | 0 kts | 99° |
| 2026-04-26 19:44 | 53.36270 | -2.26024 | 232 ft | 1 kts | 99° |
| 2026-04-26 19:44 | 53.36269 | -2.25993 | 232 ft | 5 kts | 87° |
| 2026-04-26 19:45 | 53.36288 | -2.25911 | 232 ft | 10 kts | 70° |
| 2026-04-26 19:45 | 53.36280 | -2.25803 | 232 ft | 9 kts | 116° |
| 2026-04-26 19:45 | 53.36234 | -2.25751 | 232 ft | 8 kts | 178° |
| 2026-04-26 19:45 | 53.36207 | -2.25779 | 233 ft | 0 kts | 228° |
| 2026-04-26 19:46 | 53.36204 | -2.25784 | 233 ft | 3 kts | 228° |
| 2026-04-26 19:46 | 53.36055 | -2.26089 | 245 ft | 73 kts | 231° |
| 2026-04-26 19:46 | 53.35564 | -2.27106 | 239 ft | 148 kts | 231° |
| 2026-04-26 19:46 | 53.34820 | -2.28632 | 702 ft | 176 kts | 230° |
| 2026-04-26 19:47 | 53.34024 | -2.30281 | 1597 ft | 187 kts | 231° |
| 2026-04-26 19:47 | 53.33486 | -2.31412 | 2233 ft | 189 kts | 232° |
| 2026-04-26 19:47 | 53.32378 | -2.33985 | 2712 ft | 221 kts | 245° |
| 2026-04-26 19:47 | 53.32089 | -2.36564 | 3169 ft | 232 kts | 274° |
| 2026-04-26 19:48 | 53.32618 | -2.39173 | 3621 ft | 250 kts | 305° |
| 2026-04-26 19:48 | 53.33996 | -2.40979 | 4212 ft | 262 kts | 337° |
| 2026-04-26 19:48 | 53.35760 | -2.41917 | 4814 ft | 267 kts | 344° |
| 2026-04-26 19:48 | 53.37564 | -2.42731 | 5006 ft | 270 kts | 344° |
| 2026-04-26 19:49 | 53.39386 | -2.43606 | 5139 ft | 274 kts | 342° |
| 2026-04-26 19:49 | 53.41195 | -2.44513 | 5992 ft | 273 kts | 342° |
| 2026-04-26 19:49 | 53.43018 | -2.45443 | 6878 ft | 273 kts | 341° |
| 2026-04-26 19:49 | 53.44833 | -2.46358 | 7598 ft | 277 kts | 345° |
| 2026-04-26 19:50 | 53.46767 | -2.46502 | 8303 ft | 284 kts | 13° |
| 2026-04-26 19:50 | 53.48513 | -2.44945 | 9071 ft | 287 kts | 40° |
| 2026-04-26 19:50 | 53.49988 | -2.42708 | 9820 ft | 291 kts | 43° |
| 2026-04-26 19:50 | 53.51508 | -2.40410 | 10512 ft | 295 kts | 40° |
| 2026-04-26 19:51 | 53.53092 | -2.38168 | 11231 ft | 297 kts | 39° |
| 2026-04-26 19:51 | 53.54701 | -2.36024 | 11960 ft | 299 kts | 37° |
| 2026-04-26 19:51 | 53.56371 | -2.33881 | 12715 ft | 302 kts | 37° |
| 2026-04-26 19:51 | 53.58054 | -2.31720 | 13463 ft | 305 kts | 37° |
| 2026-04-26 19:52 | 53.59735 | -2.29540 | 14218 ft | 308 kts | 37° |
| 2026-04-26 19:52 | 53.61433 | -2.27324 | 14883 ft | 312 kts | 37° |
| 2026-04-26 19:52 | 53.63168 | -2.25056 | 15223 ft | 316 kts | 37° |
| 2026-04-26 19:52 | 53.64891 | -2.22798 | 15269 ft | 317 kts | 37° |
| 2026-04-26 19:53 | 53.66639 | -2.20506 | 15289 ft | 316 kts | 37° |
| 2026-04-26 19:53 | 53.68363 | -2.18244 | 15282 ft | 316 kts | 37° |
| 2026-04-26 19:53 | 53.70103 | -2.15958 | 15285 ft | 316 kts | 37° |
| 2026-04-26 19:53 | 53.71236 | -2.14468 | 15288 ft | 316 kts | 37° |
| 2026-04-26 19:54 | 53.71581 | -2.14014 | 15285 ft | 315 kts | 37° |
| 2026-04-26 19:54 | 53.73431 | -2.12145 | 15269 ft | 313 kts | 17° |
| 2026-04-26 19:55 | 53.75634 | -2.11609 | 15293 ft | 331 kts | 355° |
| 2026-04-26 19:55 | 53.77910 | -2.12554 | 15302 ft | 351 kts | 337° |
| 2026-04-26 19:55 | 53.80221 | -2.14288 | 15298 ft | 371 kts | 334° |
| 2026-04-26 19:55 | 53.82594 | -2.16135 | 15331 ft | 378 kts | 335° |
| 2026-04-26 19:56 | 53.85027 | -2.17819 | 15916 ft | 380 kts | 338° |
| 2026-04-26 19:56 | 53.87482 | -2.19417 | 16615 ft | 380 kts | 338° |
| 2026-04-26 19:56 | 53.89946 | -2.21029 | 17214 ft | 382 kts | 338° |
| 2026-04-26 19:56 | 53.92427 | -2.22691 | 17818 ft | 384 kts | 337° |
| 2026-04-26 19:57 | 53.94927 | -2.24398 | 18410 ft | 386 kts | 337° |
| 2026-04-26 19:57 | 53.97401 | -2.26100 | 18923 ft | 389 kts | 337° |
| 2026-04-26 19:57 | 53.99921 | -2.27838 | 19377 ft | 392 kts | 337° |
| 2026-04-26 19:57 | 54.01818 | -2.29145 | 19713 ft | 395 kts | 337° |
| 2026-04-26 19:58 | 54.03774 | -2.30499 | 20010 ft | 393 kts | 336° |
| 2026-04-26 19:58 | 54.06330 | -2.32274 | 20156 ft | 401 kts | 336° |
| 2026-04-26 19:59 | 54.08948 | -2.34090 | 20580 ft | 404 kts | 336° |
| 2026-04-26 19:59 | 54.11560 | -2.35899 | 21090 ft | 405 kts | 336° |
| 2026-04-26 19:59 | 54.14141 | -2.37688 | 21519 ft | 409 kts | 336° |
| 2026-04-26 19:59 | 54.16804 | -2.39538 | 21930 ft | 413 kts | 336° |
| 2026-04-26 20:00 | 54.19489 | -2.41400 | 22334 ft | 416 kts | 336° |
| 2026-04-26 20:00 | 54.22155 | -2.43248 | 22768 ft | 419 kts | 336° |
| 2026-04-26 20:00 | 54.24876 | -2.45135 | 23174 ft | 421 kts | 335° |
| 2026-04-26 20:00 | 54.27579 | -2.47013 | 23572 ft | 424 kts | 335° |
| 2026-04-26 20:01 | 54.30341 | -2.48934 | 23946 ft | 427 kts | 335° |
| 2026-04-26 20:01 | 54.33097 | -2.50854 | 24302 ft | 428 kts | 335° |
| 2026-04-26 20:01 | 54.35865 | -2.52787 | 24671 ft | 429 kts | 335° |
| 2026-04-26 20:01 | 54.38637 | -2.54723 | 25035 ft | 431 kts | 335° |
| 2026-04-26 20:02 | 54.41396 | -2.56656 | 25367 ft | 432 kts | 335° |
| 2026-04-26 20:02 | 54.44201 | -2.58622 | 25693 ft | 434 kts | 335° |
| 2026-04-26 20:02 | 54.47008 | -2.60594 | 26014 ft | 436 kts | 334° |
| 2026-04-26 20:02 | 54.48870 | -2.61903 | 26218 ft | 437 kts | 334° |
| 2026-04-26 20:03 | 54.52621 | -2.64550 | 26274 ft | 443 kts | 334° |
| 2026-04-26 20:03 | 54.55477 | -2.66576 | 26280 ft | 439 kts | 334° |
| 2026-04-26 20:03 | 54.58269 | -2.68558 | 26281 ft | 435 kts | 334° |
| 2026-04-26 20:03 | 54.61084 | -2.70562 | 26280 ft | 435 kts | 334° |
| 2026-04-26 20:04 | 54.63891 | -2.72564 | 26285 ft | 436 kts | 334° |
| 2026-04-26 20:04 | 54.66680 | -2.74554 | 26289 ft | 437 kts | 334° |
| 2026-04-26 20:04 | 54.69504 | -2.76571 | 26290 ft | 438 kts | 334° |
| 2026-04-26 20:04 | 54.72310 | -2.78577 | 26298 ft | 438 kts | 334° |
| 2026-04-26 20:05 | 54.75122 | -2.80585 | 26287 ft | 438 kts | 334° |
| 2026-04-26 20:05 | 54.77928 | -2.82590 | 26285 ft | 438 kts | 334° |
| 2026-04-26 20:05 | 54.80777 | -2.84628 | 26267 ft | 437 kts | 334° |
| 2026-04-26 20:05 | 54.83571 | -2.86630 | 26275 ft | 436 kts | 334° |
| 2026-04-26 20:06 | 54.86356 | -2.88629 | 26285 ft | 436 kts | 334° |
| 2026-04-26 20:06 | 54.89177 | -2.90660 | 26275 ft | 435 kts | 334° |
| 2026-04-26 20:06 | 54.91938 | -2.92656 | 26154 ft | 427 kts | 334° |
| 2026-04-26 20:06 | 54.94677 | -2.94639 | 25617 ft | 422 kts | 334° |
| 2026-04-26 20:07 | 54.97361 | -2.96592 | 24946 ft | 422 kts | 334° |
| 2026-04-26 20:07 | 55.00094 | -2.98584 | 24323 ft | 420 kts | 334° |
| 2026-04-26 20:07 | 55.02770 | -3.00536 | 23807 ft | 416 kts | 335° |
| 2026-04-26 20:07 | 55.05396 | -3.02451 | 23249 ft | 411 kts | 335° |
| 2026-04-26 20:08 | 55.08049 | -3.04388 | 22649 ft | 407 kts | 335° |
| 2026-04-26 20:08 | 55.10636 | -3.06279 | 22052 ft | 404 kts | 335° |
| 2026-04-26 20:08 | 55.13235 | -3.08182 | 21455 ft | 401 kts | 335° |
| 2026-04-26 20:08 | 55.15810 | -3.10070 | 20891 ft | 398 kts | 335° |
| 2026-04-26 20:09 | 55.18282 | -3.11880 | 20724 ft | 378 kts | 334° |
| 2026-04-26 20:09 | 55.20658 | -3.13618 | 20582 ft | 358 kts | 334° |
| 2026-04-26 20:09 | 55.22906 | -3.15267 | 20319 ft | 342 kts | 334° |
| 2026-04-26 20:09 | 55.25055 | -3.16849 | 20042 ft | 331 kts | 334° |
| 2026-04-26 20:10 | 55.27155 | -3.18396 | 19889 ft | 323 kts | 334° |
| 2026-04-26 20:10 | 55.29231 | -3.19862 | 19580 ft | 322 kts | 340° |
| 2026-04-26 20:10 | 55.31480 | -3.20288 | 19179 ft | 330 kts | 0° |
| 2026-04-26 20:10 | 55.33746 | -3.19891 | 18887 ft | 329 kts | 1° |
| 2026-04-26 20:11 | 55.35996 | -3.20233 | 18414 ft | 323 kts | 339° |
| 2026-04-26 20:11 | 55.38012 | -3.21874 | 17701 ft | 321 kts | 327° |
| 2026-04-26 20:11 | 55.39928 | -3.23931 | 17012 ft | 321 kts | 324° |
| 2026-04-26 20:12 | 55.43684 | -3.28162 | 15624 ft | 322 kts | 324° |
| 2026-04-26 20:12 | 55.45575 | -3.30304 | 14960 ft | 321 kts | 324° |
| 2026-04-26 20:12 | 55.47460 | -3.32444 | 14323 ft | 321 kts | 324° |
| 2026-04-26 20:12 | 55.49319 | -3.34557 | 13634 ft | 321 kts | 324° |
| 2026-04-26 20:13 | 55.51209 | -3.36709 | 12931 ft | 321 kts | 324° |
| 2026-04-26 20:13 | 55.53070 | -3.38833 | 12236 ft | 321 kts | 324° |
| 2026-04-26 20:13 | 55.54960 | -3.40993 | 11549 ft | 321 kts | 324° |
| 2026-04-26 20:13 | 55.56818 | -3.43117 | 10872 ft | 320 kts | 324° |
| 2026-04-26 20:14 | 55.58689 | -3.45258 | 10241 ft | 319 kts | 324° |
| 2026-04-26 20:14 | 55.60554 | -3.47395 | 9520 ft | 318 kts | 324° |
| 2026-04-26 20:14 | 55.61780 | -3.48804 | 9050 ft | 316 kts | 324° |
| 2026-04-26 20:14 | 55.64143 | -3.51537 | 8165 ft | 314 kts | 324° |
| 2026-04-26 20:15 | 55.65365 | -3.52956 | 7708 ft | 313 kts | 324° |
| 2026-04-26 20:15 | 55.67193 | -3.55087 | 7026 ft | 312 kts | 324° |
| 2026-04-26 20:15 | 55.68985 | -3.57187 | 6350 ft | 310 kts | 324° |
| 2026-04-26 20:15 | 55.70759 | -3.59278 | 5664 ft | 308 kts | 324° |
| 2026-04-26 20:16 | 55.72537 | -3.61389 | 4981 ft | 305 kts | 324° |
| 2026-04-26 20:16 | 55.74298 | -3.63496 | 4381 ft | 301 kts | 324° |
| 2026-04-26 20:16 | 55.75985 | -3.65522 | 4169 ft | 284 kts | 324° |
| 2026-04-26 20:16 | 55.77590 | -3.67443 | 4030 ft | 267 kts | 324° |
| 2026-04-26 20:17 | 55.79072 | -3.69207 | 3986 ft | 248 kts | 324° |
| 2026-04-26 20:17 | 55.80455 | -3.70846 | 3998 ft | 227 kts | 324° |
| 2026-04-26 20:17 | 55.81700 | -3.72276 | 3980 ft | 205 kts | 327° |
| 2026-04-26 20:17 | 55.82926 | -3.73251 | 3963 ft | 186 kts | 354° |
| 2026-04-26 20:18 | 55.84036 | -3.72504 | 3983 ft | 175 kts | 48° |
| 2026-04-26 20:18 | 55.84431 | -3.70548 | 4064 ft | 167 kts | 82° |
| 2026-04-26 20:18 | 55.84766 | -3.68594 | 3967 ft | 168 kts | 63° |
| 2026-04-26 20:18 | 55.85289 | -3.66723 | 3746 ft | 167 kts | 62° |
| 2026-04-26 20:19 | 55.85799 | -3.64882 | 3535 ft | 166 kts | 62° |
| 2026-04-26 20:19 | 55.86343 | -3.63075 | 3310 ft | 165 kts | 59° |
| 2026-04-26 20:19 | 55.86911 | -3.61321 | 3088 ft | 165 kts | 58° |
| 2026-04-26 20:19 | 55.87486 | -3.59589 | 2850 ft | 159 kts | 57° |
| 2026-04-26 20:20 | 55.88047 | -3.57912 | 2641 ft | 154 kts | 57° |
| 2026-04-26 20:20 | 55.88591 | -3.56293 | 2444 ft | 154 kts | 57° |
| 2026-04-26 20:20 | 55.89146 | -3.54643 | 2232 ft | 155 kts | 57° |
| 2026-04-26 20:20 | 55.89701 | -3.52989 | 2019 ft | 154 kts | 57° |
| 2026-04-26 20:21 | 55.90246 | -3.51368 | 1808 ft | 153 kts | 57° |
| 2026-04-26 20:21 | 55.90794 | -3.49739 | 1598 ft | 151 kts | 57° |
| 2026-04-26 20:21 | 55.91339 | -3.48119 | 1393 ft | 152 kts | 57° |
| 2026-04-26 20:21 | 55.91883 | -3.46507 | 1157 ft | 150 kts | 58° |
| 2026-04-26 20:22 | 55.92438 | -3.44973 | 883 ft | 148 kts | 52° |
| 2026-04-26 20:22 | 55.92963 | -3.43426 | 656 ft | 144 kts | 62° |
| 2026-04-26 20:22 | 55.93439 | -3.41859 | 531 ft | 144 kts | 58° |
| 2026-04-26 20:22 | 55.93954 | -3.40354 | 371 ft | 141 kts | 57° |
| 2026-04-26 20:23 | 55.94467 | -3.38843 | 213 ft | 141 kts | 59° |
| 2026-04-26 20:23 | 55.94951 | -3.37417 | 110 ft | 125 kts | 59° |
| 2026-04-26 20:23 | 55.95310 | -3.36339 | 109 ft | 76 kts | 59° |
| 2026-04-26 20:23 | 55.95488 | -3.35812 | 112 ft | 31 kts | 59° |
| 2026-04-26 20:24 | 55.95552 | -3.35616 | 111 ft | 10 kts | 62° |
| 2026-04-26 20:24 | 55.95559 | -3.35511 | 110 ft | 5 kts | 124° |
| 2026-04-26 20:24 | 55.95546 | -3.35491 | 112 ft | 0 kts | 145° |
| 2026-04-26 20:25 | 55.95531 | -3.35473 | 114 ft | 3 kts | 147° |
| 2026-04-26 20:25 | 55.95518 | -3.35459 | 112 ft | 3 kts | 147° |
| 2026-04-26 20:25 | 55.95493 | -3.35431 | 113 ft | 3 kts | 149° |
| 2026-04-26 20:25 | 55.95474 | -3.35412 | 114 ft | 3 kts | 150° |
| 2026-04-26 20:26 | 55.95446 | -3.35402 | 114 ft | 7 kts | 183° |
| 2026-04-26 20:26 | 55.95417 | -3.35448 | 112 ft | 5 kts | 238° |
| 2026-04-26 20:26 | 55.95394 | -3.35514 | 115 ft | 7 kts | 238° |
| 2026-04-26 20:26 | 55.95368 | -3.35590 | 115 ft | 7 kts | 238° |
| 2026-04-26 20:27 | 55.95343 | -3.35664 | 115 ft | 7 kts | 239° |
| 2026-04-26 20:27 | 55.95319 | -3.35737 | 111 ft | 7 kts | 239° |
| 2026-04-26 20:27 | 55.95295 | -3.35808 | 113 ft | 7 kts | 239° |
| 2026-04-26 20:27 | 55.95271 | -3.35875 | 113 ft | 6 kts | 237° |
| 2026-04-26 20:28 | 55.95248 | -3.35945 | 113 ft | 7 kts | 240° |
| 2026-04-26 20:28 | 55.95222 | -3.36001 | 113 ft | 6 kts | 241° |
| 2026-04-26 20:28 | 55.95204 | -3.36074 | 112 ft | 8 kts | 242° |
| 2026-04-26 20:28 | 55.95176 | -3.36155 | 112 ft | 7 kts | 230° |
| 2026-04-26 20:29 | 55.95134 | -3.36166 | 115 ft | 7 kts | 152° |
| 2026-04-26 20:29 | 55.95111 | -3.36099 | 115 ft | 6 kts | 108° |
| 2026-04-26 20:29 | 55.95097 | -3.36026 | 112 ft | 6 kts | 108° |
| 2026-04-26 20:29 | 55.95071 | -3.36010 | 115 ft | 5 kts | 218° |
| 2026-04-26 20:30 | 55.95052 | -3.36053 | 114 ft | 4 kts | 232° |
| 2026-04-26 20:30 | 55.95038 | -3.36087 | 117 ft | 2 kts | 233° |
| 2026-04-26 20:30 | 55.95037 | -3.36088 | 126 ft | 0 kts | 233° |